createdAt,value
2018-05-25T00:00:55.430Z,54.93
2018-05-25T00:03:22.919Z,55.15
2018-05-25T00:05:50.439Z,55.33
2018-05-25T00:08:17.970Z,55.60
2018-05-25T00:10:45.479Z,55.77
2018-05-25T00:13:12.972Z,55.92
2018-05-25T00:15:40.477Z,56.05
2018-05-25T00:18:07.982Z,56.16
2018-05-25T00:20:35.485Z,56.41
2018-05-25T00:23:02.939Z,56.59
2018-05-25T00:25:30.534Z,56.54
2018-05-25T00:27:58.020Z,56.64
2018-05-25T00:30:25.476Z,56.84
2018-05-25T00:32:52.980Z,57.01
2018-05-25T00:35:20.552Z,57.05
2018-05-25T00:37:48.027Z,57.15
2018-05-25T00:40:15.524Z,57.33
2018-05-25T00:42:43.047Z,57.48
2018-05-25T00:45:10.613Z,57.58
2018-05-25T00:47:38.125Z,57.63
2018-05-25T00:50:05.656Z,57.70
2018-05-25T00:52:33.151Z,57.79
2018-05-25T00:55:12.800Z,57.84
2018-05-25T00:57:40.278Z,57.96
2018-05-25T01:00:07.900Z,58.06
2018-05-25T01:02:35.434Z,58.10
2018-05-25T01:05:02.908Z,58.18
2018-05-25T01:07:30.421Z,58.22
2018-05-25T01:09:57.934Z,58.27
2018-05-25T01:12:25.406Z,58.37
2018-05-25T01:14:52.893Z,58.51
2018-05-25T01:17:20.385Z,58.56
2018-05-25T01:19:47.863Z,58.64
2018-05-25T01:22:15.349Z,58.80
2018-05-25T01:24:42.815Z,58.94
2018-05-25T01:27:10.333Z,59.18
2018-05-25T01:29:37.803Z,59.27
2018-05-25T01:32:05.290Z,59.40
2018-05-25T01:34:32.886Z,59.53
2018-05-25T01:37:00.377Z,59.64
2018-05-25T01:39:27.876Z,59.78
2018-05-25T01:41:55.378Z,59.77
2018-05-25T01:44:22.861Z,59.88
2018-05-25T01:46:50.378Z,59.91
2018-05-25T01:49:17.864Z,60.04
2018-05-25T01:51:45.347Z,60.21
2018-05-25T01:54:12.958Z,60.18
2018-05-25T01:56:40.467Z,60.24
2018-05-25T01:59:07.950Z,60.23
2018-05-25T02:01:35.395Z,60.43
2018-05-25T02:04:02.921Z,60.54
2018-05-25T02:06:30.381Z,60.52
2018-05-25T02:08:57.874Z,60.56
2018-05-25T02:11:25.361Z,60.63
2018-05-25T02:13:52.868Z,60.53
2018-05-25T02:16:20.345Z,60.63
2018-05-25T02:18:47.824Z,60.72
2018-05-25T02:21:15.402Z,60.80
2018-05-25T02:23:42.884Z,60.94
2018-05-25T02:26:10.373Z,60.99
2018-05-25T02:28:37.928Z,60.88
2018-05-25T02:31:05.395Z,61.01
2018-05-25T02:33:32.908Z,61.14
2018-05-25T02:36:00.413Z,61.12
2018-05-25T02:38:27.926Z,61.24
2018-05-25T02:40:55.443Z,61.16
2018-05-25T02:43:23.018Z,61.13
2018-05-25T02:45:50.483Z,61.27
2018-05-25T02:48:18.014Z,61.21
2018-05-25T02:50:45.501Z,61.25
2018-05-25T02:53:13.022Z,61.25
2018-05-25T02:55:40.576Z,61.15
2018-05-25T02:58:08.032Z,61.09
2018-05-25T03:00:35.509Z,61.24
2018-05-25T03:03:03.022Z,61.06
2018-05-25T03:05:30.509Z,61.05
2018-05-25T03:07:57.979Z,60.93
2018-05-25T03:10:25.465Z,60.97
2018-05-25T03:12:52.940Z,60.92
2018-05-25T03:15:20.396Z,60.97
2018-05-25T03:17:47.877Z,61.08
2018-05-25T03:20:15.347Z,61.08
2018-05-25T03:22:42.890Z,60.71
2018-05-25T03:25:10.390Z,60.73
2018-05-25T03:27:37.887Z,60.80
2018-05-25T03:30:05.385Z,60.61
2018-05-25T03:32:32.894Z,60.66
2018-05-25T03:35:00.437Z,60.87
2018-05-25T03:37:27.967Z,60.52
2018-05-25T03:39:55.445Z,60.20
2018-05-25T03:42:22.981Z,60.02
2018-05-25T03:44:50.499Z,60.03
2018-05-25T03:47:18.007Z,59.99
2018-05-25T03:49:45.520Z,59.57
2018-05-25T03:52:13.021Z,59.13
2018-05-25T03:54:40.495Z,58.94
2018-05-25T03:57:07.961Z,58.72
2018-05-25T03:59:47.400Z,58.17
2018-05-25T04:02:14.907Z,54.92
2018-05-25T04:04:42.377Z,51.24
2018-05-25T04:07:09.892Z,47.75
2018-05-25T04:09:37.372Z,44.60
2018-05-25T04:12:04.878Z,43.37
2018-05-25T04:14:32.407Z,42.21
2018-05-25T04:16:59.906Z,41.46
2018-05-25T04:19:27.400Z,40.77
2018-05-25T04:21:54.867Z,39.59
2018-05-25T04:24:22.383Z,39.34
2018-05-25T04:26:49.875Z,38.21
2018-05-25T04:29:17.366Z,38.24
2018-05-25T04:31:44.861Z,40.19
2018-05-25T04:34:12.388Z,41.28
2018-05-25T04:36:39.931Z,42.59
2018-05-25T04:39:07.401Z,42.35
2018-05-25T04:41:34.959Z,40.14
2018-05-25T04:44:02.478Z,38.66
2018-05-25T04:46:29.944Z,37.98
2018-05-25T04:48:57.473Z,38.28
2018-05-25T04:51:24.937Z,37.45
2018-05-25T04:53:52.443Z,36.42
2018-05-25T04:56:19.954Z,36.24
2018-05-25T04:58:47.433Z,36.36
2018-05-25T05:01:14.917Z,35.58
2018-05-25T05:03:42.389Z,35.47
2018-05-25T05:06:09.870Z,34.64
2018-05-25T05:08:37.417Z,35.75
2018-05-25T05:11:04.931Z,34.54
2018-05-25T05:13:32.399Z,35.32
2018-05-25T05:15:59.909Z,35.94
2018-05-25T05:18:27.397Z,35.94
2018-05-25T05:20:54.862Z,35.40
2018-05-25T05:23:22.345Z,35.04
2018-05-25T05:25:49.885Z,34.39
2018-05-25T05:28:17.343Z,35.23
2018-05-25T05:30:44.939Z,34.46
2018-05-25T05:33:12.412Z,33.88
2018-05-25T05:35:39.893Z,33.46
2018-05-25T05:38:07.395Z,33.76
2018-05-25T05:40:34.935Z,33.49
2018-05-25T05:43:02.341Z,32.83
2018-05-25T05:45:29.839Z,32.70
2018-05-25T05:47:57.323Z,34.98
2018-05-25T05:50:24.813Z,37.17
2018-05-25T05:52:52.307Z,39.76
2018-05-25T05:55:19.776Z,42.72
2018-05-25T05:57:47.273Z,45.34
2018-05-25T06:00:14.856Z,46.16
2018-05-25T06:02:42.366Z,47.10
2018-05-25T06:05:09.831Z,47.51
2018-05-25T06:07:37.292Z,48.34
2018-05-25T06:10:04.767Z,48.72
2018-05-25T06:12:32.264Z,48.78
2018-05-25T06:14:59.766Z,48.75
2018-05-25T06:17:27.229Z,48.42
2018-05-25T06:19:54.758Z,48.13
2018-05-25T06:22:22.232Z,49.06
2018-05-25T06:24:49.807Z,48.99
2018-05-25T06:27:17.329Z,48.54
2018-05-25T06:29:44.993Z,49.01
2018-05-25T06:32:12.517Z,49.04
2018-05-25T06:34:39.968Z,49.18
2018-05-25T06:37:07.463Z,48.72
2018-05-25T06:39:35.057Z,48.46
2018-05-25T06:42:02.545Z,48.68
2018-05-25T06:44:30.017Z,47.84
2018-05-25T06:46:57.487Z,47.01
2018-05-25T06:49:24.977Z,46.57
2018-05-25T06:51:52.677Z,46.53
2018-05-25T06:54:20.151Z,45.92
2018-05-25T06:56:47.616Z,45.97
2018-05-25T06:59:15.319Z,46.40
2018-05-25T07:01:42.941Z,46.98
2018-05-25T07:04:10.482Z,47.41
2018-05-25T07:06:38.072Z,47.46
2018-05-25T07:09:06.415Z,47.75
2018-05-25T07:11:33.911Z,47.17
2018-05-25T07:14:01.478Z,47.00
2018-05-25T07:16:28.998Z,46.84
2018-05-25T07:18:56.512Z,46.86
2018-05-25T07:21:24.069Z,46.79
2018-05-25T07:23:51.649Z,47.22
2018-05-25T07:26:19.214Z,47.08
2018-05-25T07:28:46.746Z,46.62
2018-05-25T07:31:14.408Z,47.05
2018-05-25T07:33:41.945Z,45.83
2018-05-25T07:36:09.497Z,45.86
2018-05-25T07:38:37.171Z,46.40
2018-05-25T07:41:04.782Z,46.10
2018-05-25T07:43:32.320Z,45.77
2018-05-25T07:45:59.872Z,45.85
2018-05-25T07:48:27.361Z,46.40
2018-05-25T07:50:54.895Z,46.44
2018-05-25T07:53:22.477Z,45.92
2018-05-25T07:55:49.996Z,44.93
2018-05-25T07:58:17.648Z,45.42
2018-05-25T08:00:45.317Z,45.37
2018-05-25T08:03:12.958Z,45.23
2018-05-25T08:05:40.555Z,45.41
2018-05-25T08:08:08.097Z,45.23
2018-05-25T08:10:35.669Z,44.86
2018-05-25T08:13:03.239Z,44.87
2018-05-25T08:15:30.834Z,44.86
2018-05-25T08:17:58.415Z,44.31
2018-05-25T08:20:26.007Z,43.99
2018-05-25T08:22:53.683Z,43.61
2018-05-25T08:25:21.196Z,42.70
2018-05-25T08:27:48.719Z,42.39
2018-05-25T08:30:16.306Z,41.95
2018-05-25T08:32:43.790Z,42.49
2018-05-25T08:35:11.300Z,42.38
2018-05-25T08:37:39.000Z,42.28
2018-05-25T08:40:06.575Z,41.59
2018-05-25T08:42:34.168Z,41.93
2018-05-25T08:45:01.709Z,42.10
2018-05-25T08:47:29.265Z,41.76
2018-05-25T08:49:56.853Z,41.72
2018-05-25T08:52:24.360Z,42.09
2018-05-25T08:54:52.158Z,41.28
2018-05-25T08:57:19.778Z,41.16
2018-05-25T08:59:47.357Z,41.08
2018-05-25T09:02:14.965Z,41.01
2018-05-25T09:04:42.561Z,40.53
2018-05-25T09:07:10.303Z,39.40
2018-05-25T09:09:37.811Z,38.46
2018-05-25T09:12:05.505Z,38.70
2018-05-25T09:14:33.026Z,39.04
2018-05-25T09:17:00.579Z,39.14
2018-05-25T09:19:28.121Z,39.43
2018-05-25T09:21:55.739Z,38.75
2018-05-25T09:24:23.263Z,38.41
2018-05-25T09:26:50.816Z,37.85
2018-05-25T09:29:18.530Z,38.61
2018-05-25T09:31:46.168Z,38.40
2018-05-25T09:34:13.681Z,38.62
2018-05-25T09:36:41.237Z,37.51
2018-05-25T09:39:08.757Z,37.63
2018-05-25T09:41:36.431Z,36.91
2018-05-25T09:44:04.101Z,36.64
2018-05-25T09:46:31.599Z,35.89
2018-05-25T09:48:59.182Z,36.75
2018-05-25T09:51:26.722Z,36.99
2018-05-25T09:53:54.316Z,37.65
2018-05-25T09:56:21.980Z,37.83
2018-05-25T09:58:49.768Z,37.23
2018-05-25T10:01:17.386Z,36.66
2018-05-25T10:03:45.167Z,35.62
2018-05-25T10:06:12.772Z,35.75
2018-05-25T10:08:40.310Z,35.79
2018-05-25T10:11:07.898Z,35.83
2018-05-25T10:13:35.545Z,35.73
2018-05-25T10:16:03.034Z,35.54
2018-05-25T10:18:30.554Z,35.10
2018-05-25T10:20:58.099Z,34.95
2018-05-25T10:23:25.590Z,35.58
2018-05-25T10:25:53.172Z,35.64
2018-05-25T10:28:20.739Z,35.33
2018-05-25T10:30:48.315Z,34.98
2018-05-25T10:33:15.914Z,35.46
2018-05-25T10:35:43.458Z,35.08
2018-05-25T10:38:10.958Z,35.02
2018-05-25T10:40:38.441Z,34.50
2018-05-25T10:43:06.093Z,34.57
2018-05-25T10:45:33.806Z,35.64
2018-05-25T10:48:01.449Z,35.88
2018-05-25T10:50:28.931Z,35.25
2018-05-25T10:52:56.600Z,34.75
2018-05-25T10:55:24.247Z,34.09
2018-05-25T10:57:51.830Z,33.61
2018-05-25T11:00:19.438Z,32.80
2018-05-25T11:02:47.123Z,32.47
2018-05-25T11:05:14.714Z,32.16
2018-05-25T11:07:42.308Z,32.51
2018-05-25T11:10:09.956Z,33.12
2018-05-25T11:12:38.286Z,33.01
2018-05-25T11:15:05.852Z,33.49
2018-05-25T11:17:33.381Z,32.84
2018-05-25T11:20:00.917Z,32.57
2018-05-25T11:22:28.453Z,32.79
2018-05-25T11:24:56.058Z,33.00
2018-05-25T11:27:23.598Z,33.37
2018-05-25T11:29:51.107Z,33.59
2018-05-25T11:32:18.851Z,33.94
2018-05-25T11:34:46.476Z,34.19
2018-05-25T11:37:13.986Z,34.26
2018-05-25T11:39:41.530Z,33.94
2018-05-25T11:42:09.121Z,33.65
2018-05-25T11:44:36.698Z,32.74
2018-05-25T11:47:04.185Z,32.85
2018-05-25T11:49:31.760Z,33.42
2018-05-25T11:51:59.265Z,33.77
2018-05-25T11:54:26.823Z,34.55
2018-05-25T11:56:54.486Z,34.37
2018-05-25T11:59:22.122Z,34.40
2018-05-25T12:01:49.627Z,31.90
2018-05-25T12:04:17.206Z,31.30
2018-05-25T12:06:44.671Z,30.68
2018-05-25T12:09:12.187Z,31.91
2018-05-25T12:11:39.673Z,32.26
2018-05-25T12:14:07.177Z,32.77
2018-05-25T12:16:34.657Z,32.46
2018-05-25T12:19:02.190Z,32.65
2018-05-25T12:21:29.715Z,32.47
2018-05-25T12:23:57.186Z,32.88
2018-05-25T12:26:24.659Z,32.88
2018-05-25T12:28:52.192Z,32.58
2018-05-25T12:31:19.699Z,31.89
2018-05-25T12:33:47.217Z,31.74
2018-05-25T12:36:14.769Z,32.14
2018-05-25T12:38:42.298Z,32.19
2018-05-25T12:41:09.747Z,32.25
2018-05-25T12:43:37.238Z,32.29
2018-05-25T12:46:04.722Z,32.88
2018-05-25T12:48:32.218Z,32.63
2018-05-25T12:50:59.697Z,32.37
2018-05-25T12:53:27.234Z,31.97
2018-05-25T12:55:54.700Z,32.21
2018-05-25T12:58:22.191Z,32.04
2018-05-25T13:00:49.649Z,32.99
2018-05-25T13:03:17.135Z,32.70
2018-05-25T13:05:44.763Z,32.86
2018-05-25T13:08:12.216Z,32.77
2018-05-25T13:10:39.766Z,33.20
2018-05-25T13:13:07.272Z,33.12
2018-05-25T13:15:34.887Z,32.46
2018-05-25T13:18:02.388Z,32.47
2018-05-25T13:20:29.858Z,32.16
2018-05-25T13:22:57.407Z,32.16
2018-05-25T13:25:24.880Z,31.89
2018-05-25T13:27:52.365Z,31.91
2018-05-25T13:30:19.866Z,32.16
2018-05-25T13:32:47.364Z,32.16
2018-05-25T13:35:14.882Z,31.68
2018-05-25T13:37:42.360Z,31.33
2018-05-25T13:40:09.811Z,31.71
2018-05-25T13:42:37.547Z,31.85
2018-05-25T13:45:05.053Z,31.86
2018-05-25T13:47:32.556Z,31.68
2018-05-25T13:50:00.052Z,31.42
2018-05-25T13:52:27.525Z,32.13
2018-05-25T13:54:54.977Z,32.48
2018-05-25T13:57:22.457Z,32.15
2018-05-25T13:59:49.922Z,32.13
2018-05-25T14:02:17.485Z,31.88
2018-05-25T14:04:44.968Z,32.06
2018-05-25T14:07:12.446Z,32.42
2018-05-25T14:09:39.930Z,33.11
2018-05-25T14:12:07.542Z,33.00
2018-05-25T14:14:35.038Z,33.12
2018-05-25T14:17:02.541Z,33.21
2018-05-25T14:19:30.067Z,33.34
2018-05-25T14:21:57.552Z,32.70
2018-05-25T14:24:25.013Z,31.58
2018-05-25T14:26:52.575Z,31.68
2018-05-25T14:29:20.075Z,31.62
2018-05-25T14:31:47.581Z,31.74
2018-05-25T14:34:15.086Z,31.11
2018-05-25T14:36:42.563Z,30.92
2018-05-25T14:39:10.035Z,31.20
2018-05-25T14:41:37.549Z,31.33
2018-05-25T14:46:38.935Z,32.18
2018-05-25T14:49:06.510Z,31.28
2018-05-25T14:51:33.973Z,30.64
2018-05-25T14:54:01.492Z,30.05
2018-05-25T14:56:28.924Z,29.60
2018-05-25T14:58:56.414Z,28.49
2018-05-25T15:01:23.928Z,26.43
2018-05-25T15:03:51.426Z,27.02
2018-05-25T15:06:18.932Z,28.66
2018-05-25T15:08:46.426Z,30.36
2018-05-25T15:11:13.934Z,31.88
2018-05-25T15:13:41.524Z,32.19
2018-05-25T15:16:09.005Z,30.96
2018-05-25T15:18:36.490Z,28.23
2018-05-25T15:21:03.968Z,26.75
2018-05-25T15:23:31.469Z,25.85
2018-05-25T15:25:58.948Z,24.88
2018-05-25T15:28:26.433Z,24.22
2018-05-25T15:30:54.084Z,25.14
2018-05-25T15:33:21.456Z,25.75
2018-05-25T15:35:48.970Z,26.65
2018-05-25T15:38:16.443Z,26.31
2018-05-25T15:40:43.910Z,25.84
2018-05-25T15:43:11.414Z,25.18
2018-05-25T15:45:38.977Z,24.84
2018-05-25T15:48:06.457Z,24.71
2018-05-25T15:50:33.994Z,24.81
2018-05-25T15:53:01.503Z,24.52
2018-05-25T15:55:28.999Z,24.18
2018-05-25T15:57:56.544Z,23.71
2018-05-25T16:00:24.002Z,24.58
2018-05-25T16:02:51.501Z,26.74
2018-05-25T16:05:19.043Z,28.83
2018-05-25T16:07:46.543Z,29.30
2018-05-25T16:10:14.110Z,29.71
2018-05-25T16:12:41.581Z,31.07
2018-05-25T16:15:09.040Z,31.95
2018-05-25T16:17:36.533Z,32.47
2018-05-25T16:20:04.009Z,32.86
2018-05-25T16:22:31.490Z,32.70
2018-05-25T16:24:58.956Z,32.83
2018-05-25T16:27:26.444Z,32.79
2018-05-25T16:29:53.913Z,32.79
2018-05-25T16:32:21.364Z,32.88
2018-05-25T16:34:48.828Z,33.31
2018-05-25T16:37:16.459Z,33.24
2018-05-25T16:39:43.985Z,33.18
2018-05-25T16:42:11.473Z,33.49
2018-05-25T16:44:38.975Z,32.79
2018-05-25T16:47:06.483Z,32.52
2018-05-25T16:49:33.985Z,32.91
2018-05-25T16:52:01.518Z,33.38
2018-05-25T16:54:28.991Z,33.41
2018-05-25T16:56:56.435Z,34.03
2018-05-25T16:59:23.959Z,34.00
2018-05-25T17:01:51.452Z,34.00
2018-05-25T17:04:18.957Z,34.23
2018-05-25T17:06:46.422Z,34.32
2018-05-25T17:09:13.916Z,34.40
2018-05-25T17:11:41.412Z,34.76
2018-05-25T17:14:08.900Z,34.62
2018-05-25T17:16:36.352Z,34.77
2018-05-25T17:19:03.828Z,34.76
2018-05-25T17:21:31.364Z,34.75
2018-05-25T17:23:58.862Z,35.00
2018-05-25T17:26:26.356Z,34.91
2018-05-25T17:28:53.844Z,35.08
2018-05-25T17:31:21.365Z,35.77
2018-05-25T17:33:48.860Z,36.99
2018-05-25T17:36:16.313Z,37.85
2018-05-25T17:38:43.844Z,38.40
2018-05-25T17:41:11.376Z,38.73
2018-05-25T17:43:38.940Z,39.09
2018-05-25T17:46:06.531Z,39.28
2018-05-25T17:48:34.052Z,39.28
2018-05-25T17:51:01.567Z,39.49
2018-05-25T17:53:29.068Z,39.60
2018-05-25T17:55:56.641Z,39.93
2018-05-25T17:58:24.147Z,39.82
2018-05-25T18:00:51.646Z,40.22
2018-05-25T18:03:19.150Z,40.42
2018-05-25T18:05:46.660Z,40.24
2018-05-25T18:08:14.155Z,40.35
2018-05-25T18:10:41.652Z,40.55
2018-05-25T18:13:09.151Z,40.90
2018-05-25T18:15:36.636Z,40.91
2018-05-25T18:18:04.093Z,41.04
2018-05-25T18:20:31.565Z,41.13
2018-05-25T18:22:59.042Z,41.27
2018-05-25T18:25:26.488Z,41.25
2018-05-25T18:27:54.971Z,41.39
2018-05-25T18:30:22.457Z,41.55
2018-05-25T18:32:50.055Z,41.58
2018-05-25T18:35:17.546Z,41.79
2018-05-25T18:37:45.082Z,42.00
2018-05-25T18:40:12.563Z,42.12
2018-05-25T18:42:40.050Z,42.19
2018-05-25T18:45:07.605Z,42.25
2018-05-25T18:47:35.128Z,42.28
2018-05-25T18:50:02.595Z,42.32
2018-05-25T18:52:30.123Z,42.58
2018-05-25T18:54:57.627Z,42.76
2018-05-25T18:57:25.237Z,42.71
2018-05-25T18:59:52.737Z,42.78
2018-05-25T19:02:20.230Z,42.87
2018-05-25T19:04:47.774Z,42.83
2018-05-25T19:07:15.240Z,42.99
2018-05-25T19:09:42.748Z,43.01
2018-05-25T19:12:10.241Z,42.93
2018-05-25T19:14:37.883Z,43.25
2018-05-25T19:17:05.489Z,43.47
2018-05-25T19:19:33.051Z,43.42
2018-05-25T19:22:00.553Z,43.56
2018-05-25T19:24:28.057Z,43.59
2018-05-25T19:26:55.580Z,43.54
2018-05-25T19:29:23.056Z,43.60
2018-05-25T19:31:50.590Z,43.83
2018-05-25T19:34:18.060Z,43.84
2018-05-25T19:36:45.508Z,43.99
2018-05-25T19:39:12.976Z,43.83
2018-05-25T19:41:40.453Z,43.82
2018-05-25T19:44:07.943Z,43.80
2018-05-25T19:46:35.448Z,43.89
2018-05-25T19:49:02.908Z,43.98
2018-05-25T19:51:30.383Z,44.11
2018-05-25T19:53:57.957Z,44.25
2018-05-25T19:56:25.515Z,44.29
2018-05-25T19:58:53.008Z,44.39
2018-05-25T20:01:20.531Z,44.62
2018-05-25T20:03:48.030Z,44.67
2018-05-25T20:06:15.485Z,44.78
2018-05-25T20:08:43.013Z,44.83
2018-05-25T20:11:10.521Z,44.85
2018-05-25T20:13:38.000Z,45.04
2018-05-25T20:16:05.492Z,45.10
2018-05-25T20:18:33.019Z,45.27
2018-05-25T20:21:00.556Z,45.38
2018-05-25T20:23:28.026Z,45.60
2018-05-25T20:25:55.588Z,45.79
2018-05-25T20:28:23.186Z,45.98
2018-05-25T20:30:50.702Z,46.17
2018-05-25T20:33:18.206Z,46.36
2018-05-25T20:35:45.667Z,46.50
2018-05-25T20:38:13.224Z,46.71
2018-05-25T20:40:41.054Z,46.94
2018-05-25T20:43:08.562Z,47.09
2018-05-25T20:45:36.055Z,47.24
2018-05-25T20:48:03.542Z,47.33
2018-05-25T20:50:31.069Z,47.58
2018-05-25T20:52:58.570Z,47.67
2018-05-25T20:55:26.146Z,47.81
2018-05-25T20:57:53.658Z,48.13
2018-05-25T21:00:21.167Z,48.09
2018-05-25T21:02:48.654Z,48.31
2018-05-25T21:05:16.168Z,48.50
2018-05-25T21:07:43.635Z,48.65
2018-05-25T21:10:11.305Z,48.76
2018-05-25T21:12:38.803Z,48.90
2018-05-25T21:15:06.422Z,49.13
2018-05-25T21:17:33.970Z,49.22
2018-05-25T21:20:01.466Z,49.39
2018-05-25T21:22:28.949Z,49.53
2018-05-25T21:24:56.500Z,49.68
2018-05-25T21:27:23.964Z,49.68
2018-05-25T21:29:51.569Z,49.86
2018-05-25T21:32:19.087Z,49.88
2018-05-25T21:34:46.553Z,49.92
2018-05-25T21:37:14.162Z,49.92
2018-05-25T21:39:41.637Z,49.98
2018-05-25T21:42:09.141Z,50.04
2018-05-25T21:44:36.658Z,50.07
2018-05-25T21:47:04.138Z,50.07
2018-05-25T21:49:31.619Z,50.02
2018-05-25T21:51:59.177Z,49.99
2018-05-25T21:54:26.693Z,49.96
2018-05-25T21:56:54.187Z,49.92
2018-05-25T21:59:21.748Z,50.11
2018-05-25T22:01:49.268Z,50.30
2018-05-25T22:04:16.753Z,50.60
2018-05-25T22:06:44.465Z,50.92
2018-05-25T22:09:12.444Z,51.13
2018-05-25T22:11:39.943Z,51.39
2018-05-25T22:14:07.569Z,51.67
2018-05-25T22:16:35.134Z,51.96
2018-05-25T22:19:02.500Z,52.16
2018-05-25T22:21:29.973Z,52.49
2018-05-25T22:23:57.453Z,52.65
2018-05-25T22:26:24.969Z,52.99
2018-05-25T22:28:52.419Z,53.06
2018-05-25T22:31:19.984Z,53.36
2018-05-25T22:33:47.453Z,53.61
2018-05-25T22:36:14.947Z,53.94
2018-05-25T22:38:42.654Z,54.08
2018-05-25T22:41:10.132Z,54.21
2018-05-25T22:43:49.353Z,54.41
2018-05-25T22:46:28.682Z,54.49
2018-05-25T22:49:08.390Z,54.73
2018-05-25T22:51:47.626Z,54.88
2018-05-25T22:54:28.553Z,55.05
2018-05-25T22:56:56.020Z,55.25
2018-05-25T22:59:23.544Z,55.28
2018-05-25T23:01:51.075Z,55.56
2018-05-25T23:04:18.543Z,55.75
2018-05-25T23:06:45.999Z,55.36
2018-05-25T23:09:13.517Z,55.71
2018-05-25T23:11:41.034Z,55.84
2018-05-25T23:14:08.491Z,56.20
2018-05-25T23:16:35.953Z,56.46
2018-05-25T23:19:03.462Z,56.59
2018-05-25T23:21:30.984Z,56.84
2018-05-25T23:23:58.499Z,57.24
2018-05-25T23:26:25.965Z,57.09
2018-05-25T23:28:53.488Z,57.17
2018-05-25T23:31:21.008Z,57.28
2018-05-25T23:33:48.489Z,57.67
2018-05-25T23:36:15.975Z,57.64
2018-05-25T23:38:43.484Z,58.20
2018-05-25T23:41:10.991Z,57.82
2018-05-25T23:43:38.511Z,58.30
2018-05-25T23:46:06.075Z,58.01
2018-05-25T23:48:33.535Z,58.58
2018-05-25T23:51:01.049Z,58.42
2018-05-25T23:53:28.576Z,58.48
2018-05-25T23:55:56.129Z,59.02
2018-05-25T23:58:23.638Z,58.45
